Terminal Aerodrome Forecast
Issued by NWS

Home | Current Version | Previous Version | Text Only | Print | Product List | Glossary On
Versions: 1 2 3 4 5 6 7 8 9 10 11 12 13
034
FTUS44 KEPZ 291136
TAFDMN
TAF
KDMN 291136Z 2912/3012 25006KT P6SM SKC
     FM291500 28015G25KT P6SM FEW080
     FM291900 28022G32KT P6SM FEW080
     FM300500 28010KT P6SM SKC=

USA.gov is the U.S. government's official web portal to all federal, state and local government web resources and services.